sensor_id;sensor_type;location;lat;lon;timestamp;P1;durP1;ratioP1;P2;durP2;ratioP2
14734;SDS011;7458;49.002;8.472;2023-05-07T00:00:02;1095.13;;;922.22;;
14734;SDS011;7458;49.002;8.472;2023-05-07T00:02:33;1122.63;;;860.92;;
14734;SDS011;7458;49.002;8.472;2023-05-07T00:04:59;1123.38;;;859.60;;
14734;SDS011;7458;49.002;8.472;2023-05-07T00:07:25;1110.13;;;876.10;;
14734;SDS011;7458;49.002;8.472;2023-05-07T00:09:50;1075.47;;;923.13;;
14734;SDS011;7458;49.002;8.472;2023-05-07T00:12:16;1099.25;;;866.33;;
14734;SDS011;7458;49.002;8.472;2023-05-07T00:14:42;1101.68;;;868.00;;
14734;SDS011;7458;49.002;8.472;2023-05-07T00:17:07;1070.65;;;918.88;;
14734;SDS011;7458;49.002;8.472;2023-05-07T00:19:33;1100.32;;;867.17;;
14734;SDS011;7458;49.002;8.472;2023-05-07T00:21:59;1101.03;;;872.55;;
14734;SDS011;7458;49.002;8.472;2023-05-07T00:24:25;1071.15;;;927.38;;
14734;SDS011;7458;49.002;8.472;2023-05-07T00:26:51;1070.43;;;930.03;;
14734;SDS011;7458;49.002;8.472;2023-05-07T00:29:17;1067.47;;;925.38;;
14734;SDS011;7458;49.002;8.472;2023-05-07T00:31:43;1096.25;;;872.55;;
14734;SDS011;7458;49.002;8.472;2023-05-07T00:34:09;1065.50;;;916.00;;
14734;SDS011;7458;49.002;8.472;2023-05-07T00:36:35;1101.30;;;878.95;;
14734;SDS011;7458;49.002;8.472;2023-05-07T00:39:00;1097.57;;;858.45;;
14734;SDS011;7458;49.002;8.472;2023-05-07T00:41:28;1072.78;;;932.83;;
14734;SDS011;7458;49.002;8.472;2023-05-07T00:43:57;1099.95;;;860.20;;
14734;SDS011;7458;49.002;8.472;2023-05-07T00:46:23;1106.38;;;866.45;;
14734;SDS011;7458;49.002;8.472;2023-05-07T00:48:50;1142.03;;;856.55;;
14734;SDS011;7458;49.002;8.472;2023-05-07T00:51:17;1096.03;;;905.88;;
14734;SDS011;7458;49.002;8.472;2023-05-07T00:53:43;1223.50;;;999.90;;
14734;SDS011;7458;49.002;8.472;2023-05-07T00:56:09;1215.95;;;999.90;;
14734;SDS011;7458;49.002;8.472;2023-05-07T00:58:36;1125.15;;;898.40;;
14734;SDS011;7458;49.002;8.472;2023-05-07T01:01:03;1141.82;;;850.83;;
14734;SDS011;7458;49.002;8.472;2023-05-07T01:03:28;1115.68;;;857.05;;
14734;SDS011;7458;49.002;8.472;2023-05-07T01:05:54;1066.82;;;923.95;;
14734;SDS011;7458;49.002;8.472;2023-05-07T01:08:24;1094.47;;;860.92;;
14734;SDS011;7458;49.002;8.472;2023-05-07T01:10:53;1089.80;;;858.92;;
14734;SDS011;7458;49.002;8.472;2023-05-07T01:13:20;1085.70;;;873.33;;
14734;SDS011;7458;49.002;8.472;2023-05-07T01:15:47;1078.82;;;873.35;;
14734;SDS011;7458;49.002;8.472;2023-05-07T01:18:13;1074.55;;;881.75;;
14734;SDS011;7458;49.002;8.472;2023-05-07T01:20:40;1054.18;;;925.17;;
14734;SDS011;7458;49.002;8.472;2023-05-07T01:23:07;1132.30;;;999.90;;
14734;SDS011;7458;49.002;8.472;2023-05-07T01:25:35;1239.75;;;999.90;;
14734;SDS011;7458;49.002;8.472;2023-05-07T01:28:01;1279.97;;;999.90;;
14734;SDS011;7458;49.002;8.472;2023-05-07T01:30:27;1229.13;;;999.90;;
14734;SDS011;7458;49.002;8.472;2023-05-07T01:33:04;1320.60;;;999.90;;
14734;SDS011;7458;49.002;8.472;2023-05-07T01:35:37;1250.20;;;999.90;;
14734;SDS011;7458;49.002;8.472;2023-05-07T01:38:08;1196.45;;;999.90;;
14734;SDS011;7458;49.002;8.472;2023-05-07T01:40:34;1299.85;;;999.90;;
14734;SDS011;7458;49.002;8.472;2023-05-07T01:43:01;1160.00;;;996.40;;
14734;SDS011;7458;49.002;8.472;2023-05-07T01:45:28;1132.72;;;967.42;;
14734;SDS011;7458;49.002;8.472;2023-05-07T01:47:57;1165.25;;;843.28;;
14734;SDS011;7458;49.002;8.472;2023-05-07T01:50:24;1111.50;;;866.58;;
14734;SDS011;7458;49.002;8.472;2023-05-07T01:52:51;1112.82;;;868.35;;
14734;SDS011;7458;49.002;8.472;2023-05-07T01:55:17;1134.05;;;828.63;;
14734;SDS011;7458;49.002;8.472;2023-05-07T01:57:43;1097.97;;;895.38;;
14734;SDS011;7458;49.002;8.472;2023-05-07T02:00:09;1090.47;;;880.63;;
14734;SDS011;7458;49.002;8.472;2023-05-07T02:02:35;1119.80;;;837.35;;
14734;SDS011;7458;49.002;8.472;2023-05-07T02:05:01;1084.43;;;886.30;;
14734;SDS011;7458;49.002;8.472;2023-05-07T02:07:27;1116.93;;;839.15;;
14734;SDS011;7458;49.002;8.472;2023-05-07T02:09:53;1114.07;;;843.00;;
14734;SDS011;7458;49.002;8.472;2023-05-07T02:12:20;1110.88;;;836.90;;
14734;SDS011;7458;49.002;8.472;2023-05-07T02:14:47;1085.05;;;896.10;;
14734;SDS011;7458;49.002;8.472;2023-05-07T02:17:12;1115.70;;;842.50;;
14734;SDS011;7458;49.002;8.472;2023-05-07T02:19:38;1107.78;;;849.42;;
14734;SDS011;7458;49.002;8.472;2023-05-07T02:22:04;1072.95;;;891.42;;
14734;SDS011;7458;49.002;8.472;2023-05-07T02:24:30;1095.70;;;841.65;;
14734;SDS011;7458;49.002;8.472;2023-05-07T02:26:56;1104.47;;;863.08;;
14734;SDS011;7458;49.002;8.472;2023-05-07T02:29:21;1068.53;;;906.88;;
14734;SDS011;7458;49.002;8.472;2023-05-07T02:31:47;1097.28;;;839.05;;
14734;SDS011;7458;49.002;8.472;2023-05-07T02:34:17;1079.43;;;899.92;;
14734;SDS011;7458;49.002;8.472;2023-05-07T02:36:44;1082.55;;;907.97;;
14734;SDS011;7458;49.002;8.472;2023-05-07T02:39:10;1066.22;;;892.47;;
14734;SDS011;7458;49.002;8.472;2023-05-07T02:41:37;1114.70;;;856.17;;
14734;SDS011;7458;49.002;8.472;2023-05-07T02:44:03;1117.35;;;855.95;;
14734;SDS011;7458;49.002;8.472;2023-05-07T02:46:29;1124.03;;;836.60;;
14734;SDS011;7458;49.002;8.472;2023-05-07T02:48:55;1096.63;;;898.53;;
14734;SDS011;7458;49.002;8.472;2023-05-07T02:51:21;1097.38;;;884.58;;
14734;SDS011;7458;49.002;8.472;2023-05-07T02:53:48;1100.32;;;896.03;;
14734;SDS011;7458;49.002;8.472;2023-05-07T02:56:14;1134.18;;;832.45;;
14734;SDS011;7458;49.002;8.472;2023-05-07T02:58:40;1085.50;;;886.78;;
14734;SDS011;7458;49.002;8.472;2023-05-07T03:01:07;1087.43;;;885.33;;
14734;SDS011;7458;49.002;8.472;2023-05-07T03:03:34;1134.50;;;844.03;;
14734;SDS011;7458;49.002;8.472;2023-05-07T03:06:00;1138.55;;;840.65;;
14734;SDS011;7458;49.002;8.472;2023-05-07T03:08:26;1101.95;;;888.58;;
14734;SDS011;7458;49.002;8.472;2023-05-07T03:10:52;1095.93;;;882.00;;
14734;SDS011;7458;49.002;8.472;2023-05-07T03:13:18;1093.30;;;884.67;;
14734;SDS011;7458;49.002;8.472;2023-05-07T03:15:44;1093.00;;;888.58;;
14734;SDS011;7458;49.002;8.472;2023-05-07T03:18:10;1095.03;;;881.20;;
14734;SDS011;7458;49.002;8.472;2023-05-07T03:20:48;1076.25;;;892.08;;
14734;SDS011;7458;49.002;8.472;2023-05-07T03:23:14;1083.70;;;890.90;;
14734;SDS011;7458;49.002;8.472;2023-05-07T03:25:39;1087.15;;;888.38;;
14734;SDS011;7458;49.002;8.472;2023-05-07T03:28:05;1069.60;;;887.78;;
14734;SDS011;7458;49.002;8.472;2023-05-07T03:30:31;1070.97;;;892.28;;
14734;SDS011;7458;49.002;8.472;2023-05-07T03:32:57;1095.45;;;838.28;;
14734;SDS011;7458;49.002;8.472;2023-05-07T03:35:22;1082.40;;;877.53;;
14734;SDS011;7458;49.002;8.472;2023-05-07T03:37:48;1150.43;;;830.50;;
14734;SDS011;7458;49.002;8.472;2023-05-07T03:40:14;1122.00;;;873.63;;
14734;SDS011;7458;49.002;8.472;2023-05-07T03:42:40;1158.32;;;816.35;;
14734;SDS011;7458;49.002;8.472;2023-05-07T03:45:06;1152.57;;;810.50;;
14734;SDS011;7458;49.002;8.472;2023-05-07T03:47:32;1143.18;;;803.15;;
14734;SDS011;7458;49.002;8.472;2023-05-07T03:49:58;1107.45;;;880.55;;
14734;SDS011;7458;49.002;8.472;2023-05-07T03:52:24;1138.38;;;824.00;;
14734;SDS011;7458;49.002;8.472;2023-05-07T03:54:51;1129.50;;;824.03;;
14734;SDS011;7458;49.002;8.472;2023-05-07T03:57:20;1094.43;;;887.50;;
14734;SDS011;7458;49.002;8.472;2023-05-07T03:59:46;1089.50;;;887.30;;
14734;SDS011;7458;49.002;8.472;2023-05-07T04:02:12;1125.28;;;830.65;;
14734;SDS011;7458;49.002;8.472;2023-05-07T04:04:37;1122.25;;;824.13;;
14734;SDS011;7458;49.002;8.472;2023-05-07T04:07:03;1113.20;;;835.50;;
14734;SDS011;7458;49.002;8.472;2023-05-07T04:09:29;1108.07;;;835.78;;
14734;SDS011;7458;49.002;8.472;2023-05-07T04:11:55;1072.28;;;887.38;;
14734;SDS011;7458;49.002;8.472;2023-05-07T04:14:21;1120.30;;;845.83;;
14734;SDS011;7458;49.002;8.472;2023-05-07T04:16:46;1074.97;;;891.95;;
14734;SDS011;7458;49.002;8.472;2023-05-07T04:19:12;1096.68;;;836.35;;
14734;SDS011;7458;49.002;8.472;2023-05-07T04:21:38;1066.25;;;909.97;;
14734;SDS011;7458;49.002;8.472;2023-05-07T04:24:05;1059.22;;;901.45;;
14734;SDS011;7458;49.002;8.472;2023-05-07T04:26:31;1057.40;;;903.55;;
14734;SDS011;7458;49.002;8.472;2023-05-07T04:28:56;1084.88;;;866.28;;
14734;SDS011;7458;49.002;8.472;2023-05-07T04:31:24;1050.17;;;907.67;;
14734;SDS011;7458;49.002;8.472;2023-05-07T04:33:50;1069.20;;;867.90;;
14734;SDS011;7458;49.002;8.472;2023-05-07T04:36:16;1048.40;;;905.65;;
14734;SDS011;7458;49.002;8.472;2023-05-07T04:38:42;1065.03;;;882.00;;
14734;SDS011;7458;49.002;8.472;2023-05-07T04:41:08;1064.95;;;885.85;;
14734;SDS011;7458;49.002;8.472;2023-05-07T04:43:34;1062.93;;;887.38;;
14734;SDS011;7458;49.002;8.472;2023-05-07T04:46:00;1040.90;;;923.38;;
14734;SDS011;7458;49.002;8.472;2023-05-07T04:48:26;1055.40;;;891.80;;
14734;SDS011;7458;49.002;8.472;2023-05-07T04:50:52;1059.65;;;900.85;;
14734;SDS011;7458;49.002;8.472;2023-05-07T04:53:18;1042.90;;;926.10;;
14734;SDS011;7458;49.002;8.472;2023-05-07T04:55:45;1044.10;;;918.60;;
14734;SDS011;7458;49.002;8.472;2023-05-07T04:58:11;1052.38;;;883.15;;
14734;SDS011;7458;49.002;8.472;2023-05-07T05:00:37;1043.93;;;906.90;;
14734;SDS011;7458;49.002;8.472;2023-05-07T05:03:04;1052.00;;;937.25;;
14734;SDS011;7458;49.002;8.472;2023-05-07T05:05:33;1034.65;;;908.42;;
14734;SDS011;7458;49.002;8.472;2023-05-07T05:07:59;1037.82;;;913.67;;
14734;SDS011;7458;49.002;8.472;2023-05-07T05:10:25;1049.15;;;933.75;;
14734;SDS011;7458;49.002;8.472;2023-05-07T05:12:50;1037.00;;;905.63;;
14734;SDS011;7458;49.002;8.472;2023-05-07T05:15:16;1058.25;;;942.35;;
14734;SDS011;7458;49.002;8.472;2023-05-07T05:17:42;1038.20;;;905.22;;
14734;SDS011;7458;49.002;8.472;2023-05-07T05:20:08;1050.55;;;935.00;;
14734;SDS011;7458;49.002;8.472;2023-05-07T05:22:35;1037.15;;;909.50;;
14734;SDS011;7458;49.002;8.472;2023-05-07T05:25:01;1055.00;;;939.35;;
14734;SDS011;7458;49.002;8.472;2023-05-07T05:27:27;1038.13;;;908.58;;
14734;SDS011;7458;49.002;8.472;2023-05-07T05:29:54;1040.05;;;914.67;;
14734;SDS011;7458;49.002;8.472;2023-05-07T05:32:19;1047.10;;;918.13;;
14734;SDS011;7458;49.002;8.472;2023-05-07T05:34:45;1045.20;;;921.08;;
14734;SDS011;7458;49.002;8.472;2023-05-07T05:37:11;1044.20;;;918.72;;
14734;SDS011;7458;49.002;8.472;2023-05-07T05:39:37;1066.90;;;950.30;;
14734;SDS011;7458;49.002;8.472;2023-05-07T05:42:02;1070.40;;;953.78;;
14734;SDS011;7458;49.002;8.472;2023-05-07T05:44:28;1046.75;;;930.00;;
14734;SDS011;7458;49.002;8.472;2023-05-07T05:46:54;1048.68;;;932.45;;
14734;SDS011;7458;49.002;8.472;2023-05-07T05:49:22;1049.28;;;933.25;;
14734;SDS011;7458;49.002;8.472;2023-05-07T05:51:48;1052.47;;;936.38;;
14734;SDS011;7458;49.002;8.472;2023-05-07T05:54:13;1042.72;;;926.55;;
14734;SDS011;7458;49.002;8.472;2023-05-07T05:56:40;1039.15;;;917.63;;
14734;SDS011;7458;49.002;8.472;2023-05-07T05:59:07;1062.30;;;945.90;;
14734;SDS011;7458;49.002;8.472;2023-05-07T06:01:33;1066.05;;;949.47;;
14734;SDS011;7458;49.002;8.472;2023-05-07T06:03:58;1052.63;;;936.05;;
14734;SDS011;7458;49.002;8.472;2023-05-07T06:06:24;1055.82;;;939.65;;
14734;SDS011;7458;49.002;8.472;2023-05-07T06:08:50;1051.88;;;935.97;;
14734;SDS011;7458;49.002;8.472;2023-05-07T06:11:16;1064.90;;;948.47;;
14734;SDS011;7458;49.002;8.472;2023-05-07T06:13:42;1040.78;;;921.83;;
14734;SDS011;7458;49.002;8.472;2023-05-07T06:16:08;1015.10;;;865.28;;
14734;SDS011;7458;49.002;8.472;2023-05-07T06:18:33;1010.08;;;847.50;;
14734;SDS011;7458;49.002;8.472;2023-05-07T06:21:01;1024.53;;;901.60;;
14734;SDS011;7458;49.002;8.472;2023-05-07T06:23:27;1045.43;;;926.65;;
14734;SDS011;7458;49.002;8.472;2023-05-07T06:25:52;1057.22;;;940.70;;
14734;SDS011;7458;49.002;8.472;2023-05-07T06:28:18;1060.78;;;944.05;;
14734;SDS011;7458;49.002;8.472;2023-05-07T06:30:44;1039.05;;;909.83;;
14734;SDS011;7458;49.002;8.472;2023-05-07T06:33:12;1027.53;;;878.67;;
14734;SDS011;7458;49.002;8.472;2023-05-07T06:35:38;1069.55;;;951.38;;
14734;SDS011;7458;49.002;8.472;2023-05-07T06:38:04;1118.85;;;996.88;;
14734;SDS011;7458;49.002;8.472;2023-05-07T06:40:30;1126.40;;;999.60;;
14734;SDS011;7458;49.002;8.472;2023-05-07T06:42:55;1127.70;;;999.90;;
14734;SDS011;7458;49.002;8.472;2023-05-07T06:45:21;1088.35;;;968.53;;
14734;SDS011;7458;49.002;8.472;2023-05-07T06:47:47;1111.45;;;991.17;;
14734;SDS011;7458;49.002;8.472;2023-05-07T06:50:13;1103.40;;;948.17;;
14734;SDS011;7458;49.002;8.472;2023-05-07T06:52:41;1102.22;;;948.47;;
14734;SDS011;7458;49.002;8.472;2023-05-07T06:55:06;1138.35;;;999.90;;
14734;SDS011;7458;49.002;8.472;2023-05-07T06:57:33;1100.68;;;978.97;;
14734;SDS011;7458;49.002;8.472;2023-05-07T06:59:59;1102.20;;;981.53;;
14734;SDS011;7458;49.002;8.472;2023-05-07T07:02:25;1099.88;;;979.63;;
14734;SDS011;7458;49.002;8.472;2023-05-07T07:04:51;1090.35;;;970.13;;
14734;SDS011;7458;49.002;8.472;2023-05-07T07:07:17;1136.05;;;999.90;;
14734;SDS011;7458;49.002;8.472;2023-05-07T07:09:45;1134.55;;;999.90;;
14734;SDS011;7458;49.002;8.472;2023-05-07T07:12:14;1098.35;;;976.33;;
14734;SDS011;7458;49.002;8.472;2023-05-07T07:14:40;1171.00;;;999.90;;
14734;SDS011;7458;49.002;8.472;2023-05-07T07:17:06;1184.03;;;999.90;;
14734;SDS011;7458;49.002;8.472;2023-05-07T07:19:31;1200.13;;;999.90;;
14734;SDS011;7458;49.002;8.472;2023-05-07T07:21:57;1226.18;;;999.90;;
14734;SDS011;7458;49.002;8.472;2023-05-07T07:24:23;1175.80;;;999.90;;
14734;SDS011;7458;49.002;8.472;2023-05-07T07:26:48;1186.57;;;999.90;;
14734;SDS011;7458;49.002;8.472;2023-05-07T07:29:14;1171.22;;;999.90;;
14734;SDS011;7458;49.002;8.472;2023-05-07T07:31:40;1191.68;;;999.90;;
14734;SDS011;7458;49.002;8.472;2023-05-07T07:34:06;1131.57;;;999.90;;
14734;SDS011;7458;49.002;8.472;2023-05-07T07:36:31;1177.18;;;999.90;;
14734;SDS011;7458;49.002;8.472;2023-05-07T07:38:57;1173.90;;;999.90;;
14734;SDS011;7458;49.002;8.472;2023-05-07T07:41:23;1170.40;;;999.90;;
14734;SDS011;7458;49.002;8.472;2023-05-07T07:43:48;1130.13;;;999.90;;
14734;SDS011;7458;49.002;8.472;2023-05-07T07:46:14;1121.65;;;998.88;;
14734;SDS011;7458;49.002;8.472;2023-05-07T07:48:40;1154.88;;;999.90;;
14734;SDS011;7458;49.002;8.472;2023-05-07T07:51:06;1098.47;;;978.63;;
14734;SDS011;7458;49.002;8.472;2023-05-07T07:53:31;1153.68;;;999.90;;
14734;SDS011;7458;49.002;8.472;2023-05-07T07:55:57;1143.30;;;999.90;;
14734;SDS011;7458;49.002;8.472;2023-05-07T07:58:23;1089.47;;;970.45;;
14734;SDS011;7458;49.002;8.472;2023-05-07T08:00:49;1139.35;;;999.90;;
14734;SDS011;7458;49.002;8.472;2023-05-07T08:03:16;1138.70;;;999.90;;
14734;SDS011;7458;49.002;8.472;2023-05-07T08:05:42;1154.78;;;999.90;;
14734;SDS011;7458;49.002;8.472;2023-05-07T08:08:08;1111.22;;;990.85;;
14734;SDS011;7458;49.002;8.472;2023-05-07T08:10:34;1156.53;;;999.90;;
14734;SDS011;7458;49.002;8.472;2023-05-07T08:13:03;1157.50;;;999.90;;
14734;SDS011;7458;49.002;8.472;2023-05-07T08:15:29;1121.60;;;998.53;;
14734;SDS011;7458;49.002;8.472;2023-05-07T08:17:56;1125.03;;;999.72;;
14734;SDS011;7458;49.002;8.472;2023-05-07T08:20:23;1175.97;;;999.90;;
14734;SDS011;7458;49.002;8.472;2023-05-07T08:22:48;1114.55;;;994.90;;
14734;SDS011;7458;49.002;8.472;2023-05-07T08:25:16;1175.28;;;999.90;;
14734;SDS011;7458;49.002;8.472;2023-05-07T08:27:41;1172.60;;;999.90;;
14734;SDS011;7458;49.002;8.472;2023-05-07T08:30:07;1179.57;;;999.90;;
14734;SDS011;7458;49.002;8.472;2023-05-07T08:32:34;1126.30;;;999.90;;
14734;SDS011;7458;49.002;8.472;2023-05-07T08:35:00;1153.32;;;999.90;;
14734;SDS011;7458;49.002;8.472;2023-05-07T08:37:26;1144.80;;;999.90;;
14734;SDS011;7458;49.002;8.472;2023-05-07T08:39:51;1152.88;;;999.90;;
14734;SDS011;7458;49.002;8.472;2023-05-07T08:42:17;1168.57;;;999.90;;
14734;SDS011;7458;49.002;8.472;2023-05-07T08:44:45;1130.53;;;999.90;;
14734;SDS011;7458;49.002;8.472;2023-05-07T08:47:12;1123.25;;;999.45;;
14734;SDS011;7458;49.002;8.472;2023-05-07T08:49:38;1163.70;;;999.90;;
14734;SDS011;7458;49.002;8.472;2023-05-07T08:52:04;1161.93;;;999.90;;
14734;SDS011;7458;49.002;8.472;2023-05-07T08:54:30;1165.88;;;999.90;;
14734;SDS011;7458;49.002;8.472;2023-05-07T08:56:58;1130.93;;;999.90;;
14734;SDS011;7458;49.002;8.472;2023-05-07T08:59:24;1134.60;;;999.90;;
14734;SDS011;7458;49.002;8.472;2023-05-07T09:01:51;1163.38;;;999.90;;
14734;SDS011;7458;49.002;8.472;2023-05-07T09:04:19;1156.50;;;999.90;;
14734;SDS011;7458;49.002;8.472;2023-05-07T09:06:45;1102.88;;;983.95;;
14734;SDS011;7458;49.002;8.472;2023-05-07T09:09:14;1103.57;;;984.90;;
14734;SDS011;7458;49.002;8.472;2023-05-07T09:11:43;1070.68;;;953.65;;
14734;SDS011;7458;49.002;8.472;2023-05-07T09:14:09;1038.20;;;886.58;;
14734;SDS011;7458;49.002;8.472;2023-05-07T09:16:35;1031.20;;;851.30;;
14734;SDS011;7458;49.002;8.472;2023-05-07T09:19:00;1032.15;;;849.60;;
14734;SDS011;7458;49.002;8.472;2023-05-07T09:21:27;1023.60;;;818.88;;
14734;SDS011;7458;49.002;8.472;2023-05-07T09:23:53;1049.30;;;921.05;;
14734;SDS011;7458;49.002;8.472;2023-05-07T09:26:24;1112.60;;;993.33;;
14734;SDS011;7458;49.002;8.472;2023-05-07T09:28:50;1068.45;;;951.30;;
14734;SDS011;7458;49.002;8.472;2023-05-07T09:31:17;1044.18;;;910.88;;
14734;SDS011;7458;49.002;8.472;2023-05-07T09:33:43;1050.45;;;928.03;;
14734;SDS011;7458;49.002;8.472;2023-05-07T09:36:09;1162.53;;;999.90;;
14734;SDS011;7458;49.002;8.472;2023-05-07T09:38:35;1141.50;;;999.90;;
14734;SDS011;7458;49.002;8.472;2023-05-07T09:41:09;1125.45;;;999.88;;
14734;SDS011;7458;49.002;8.472;2023-05-07T09:43:38;1112.35;;;993.13;;
14734;SDS011;7458;49.002;8.472;2023-05-07T09:46:09;1128.90;;;999.90;;
14734;SDS011;7458;49.002;8.472;2023-05-07T09:48:42;1141.60;;;999.90;;
14734;SDS011;7458;49.002;8.472;2023-05-07T09:51:30;1125.78;;;999.90;;
14734;SDS011;7458;49.002;8.472;2023-05-07T09:54:16;1096.85;;;978.70;;
14734;SDS011;7458;49.002;8.472;2023-05-07T09:56:47;1136.20;;;999.90;;
14734;SDS011;7458;49.002;8.472;2023-05-07T09:59:14;1114.90;;;995.70;;
14734;SDS011;7458;49.002;8.472;2023-05-07T10:01:42;1153.40;;;999.90;;
14734;SDS011;7458;49.002;8.472;2023-05-07T10:04:12;1119.68;;;998.50;;
14734;SDS011;7458;49.002;8.472;2023-05-07T10:06:39;1133.57;;;999.90;;
14734;SDS011;7458;49.002;8.472;2023-05-07T10:09:07;1132.38;;;999.90;;
14734;SDS011;7458;49.002;8.472;2023-05-07T10:11:35;1163.72;;;999.90;;
14734;SDS011;7458;49.002;8.472;2023-05-07T10:14:02;1168.32;;;999.90;;
14734;SDS011;7458;49.002;8.472;2023-05-07T10:16:34;1120.40;;;998.45;;
14734;SDS011;7458;49.002;8.472;2023-05-07T10:19:04;1124.28;;;999.47;;
14734;SDS011;7458;49.002;8.472;2023-05-07T10:21:37;1169.93;;;999.90;;
14734;SDS011;7458;49.002;8.472;2023-05-07T10:24:12;1177.53;;;999.90;;
14734;SDS011;7458;49.002;8.472;2023-05-07T10:26:47;1135.72;;;999.90;;
14734;SDS011;7458;49.002;8.472;2023-05-07T10:31:55;1166.20;;;999.90;;
14734;SDS011;7458;49.002;8.472;2023-05-07T10:34:43;1134.47;;;999.90;;
14734;SDS011;7458;49.002;8.472;2023-05-07T10:37:13;1127.40;;;999.90;;
14734;SDS011;7458;49.002;8.472;2023-05-07T10:39:40;1148.65;;;999.90;;
14734;SDS011;7458;49.002;8.472;2023-05-07T10:42:12;1113.18;;;994.03;;
14734;SDS011;7458;49.002;8.472;2023-05-07T10:44:39;1103.50;;;984.70;;
14734;SDS011;7458;49.002;8.472;2023-05-07T10:47:06;1128.97;;;999.90;;
14734;SDS011;7458;49.002;8.472;2023-05-07T10:52:32;1111.05;;;991.72;;
14734;SDS011;7458;49.002;8.472;2023-05-07T10:57:42;1113.00;;;993.67;;
14734;SDS011;7458;49.002;8.472;2023-05-07T11:00:50;1092.78;;;974.58;;
14734;SDS011;7458;49.002;8.472;2023-05-07T11:05:26;1100.93;;;982.22;;
14734;SDS011;7458;49.002;8.472;2023-05-07T11:08:04;1063.40;;;945.92;;
14734;SDS011;7458;49.002;8.472;2023-05-07T11:13:16;1098.53;;;979.60;;
14734;SDS011;7458;49.002;8.472;2023-05-07T11:15:43;1140.28;;;999.90;;
14734;SDS011;7458;49.002;8.472;2023-05-07T11:18:14;1131.25;;;999.90;;
14734;SDS011;7458;49.002;8.472;2023-05-07T11:20:49;1103.90;;;984.97;;
14734;SDS011;7458;49.002;8.472;2023-05-07T11:26:00;1137.78;;;999.90;;
14734;SDS011;7458;49.002;8.472;2023-05-07T11:28:29;1141.03;;;999.90;;
14734;SDS011;7458;49.002;8.472;2023-05-07T11:30:57;1127.63;;;999.90;;
14734;SDS011;7458;49.002;8.472;2023-05-07T11:33:23;1165.82;;;999.90;;
14734;SDS011;7458;49.002;8.472;2023-05-07T11:35:53;1121.07;;;999.90;;
14734;SDS011;7458;49.002;8.472;2023-05-07T11:38:19;1141.32;;;999.90;;
14734;SDS011;7458;49.002;8.472;2023-05-07T11:40:51;1171.43;;;999.90;;
14734;SDS011;7458;49.002;8.472;2023-05-07T11:43:29;1154.68;;;999.90;;
14734;SDS011;7458;49.002;8.472;2023-05-07T11:46:04;1155.43;;;999.90;;
14734;SDS011;7458;49.002;8.472;2023-05-07T11:48:35;1132.72;;;999.90;;
14734;SDS011;7458;49.002;8.472;2023-05-07T11:51:02;1127.85;;;999.90;;
14734;SDS011;7458;49.002;8.472;2023-05-07T11:53:37;1129.50;;;999.90;;
14734;SDS011;7458;49.002;8.472;2023-05-07T11:56:06;1124.65;;;999.90;;
14734;SDS011;7458;49.002;8.472;2023-05-07T11:58:36;1131.93;;;999.90;;
14734;SDS011;7458;49.002;8.472;2023-05-07T12:01:09;1142.25;;;999.90;;
14734;SDS011;7458;49.002;8.472;2023-05-07T12:03:41;1173.65;;;999.90;;
14734;SDS011;7458;49.002;8.472;2023-05-07T12:06:10;1127.47;;;999.90;;
14734;SDS011;7458;49.002;8.472;2023-05-07T12:08:38;1131.43;;;999.90;;
14734;SDS011;7458;49.002;8.472;2023-05-07T12:11:06;1163.88;;;999.90;;
14734;SDS011;7458;49.002;8.472;2023-05-07T12:13:36;1131.30;;;999.90;;
14734;SDS011;7458;49.002;8.472;2023-05-07T12:16:05;1118.20;;;997.70;;
14734;SDS011;7458;49.002;8.472;2023-05-07T12:18:33;1108.57;;;989.55;;
14734;SDS011;7458;49.002;8.472;2023-05-07T12:21:00;1118.35;;;998.58;;
14734;SDS011;7458;49.002;8.472;2023-05-07T12:23:29;1100.85;;;982.05;;
14734;SDS011;7458;49.002;8.472;2023-05-07T12:25:55;1107.85;;;988.83;;
14734;SDS011;7458;49.002;8.472;2023-05-07T12:28:21;1060.47;;;943.42;;
14734;SDS011;7458;49.002;8.472;2023-05-07T12:30:47;1093.57;;;975.10;;
14734;SDS011;7458;49.002;8.472;2023-05-07T12:33:16;1128.78;;;999.90;;
14734;SDS011;7458;49.002;8.472;2023-05-07T12:35:49;1075.97;;;958.35;;
14734;SDS011;7458;49.002;8.472;2023-05-07T12:38:16;1081.35;;;963.47;;
14734;SDS011;7458;49.002;8.472;2023-05-07T12:40:53;1050.05;;;932.67;;
14734;SDS011;7458;49.002;8.472;2023-05-07T12:43:20;1081.38;;;963.45;;
14734;SDS011;7458;49.002;8.472;2023-05-07T12:45:51;1136.18;;;999.90;;
14734;SDS011;7458;49.002;8.472;2023-05-07T12:48:20;1126.82;;;999.90;;
14734;SDS011;7458;49.002;8.472;2023-05-07T12:50:53;1099.75;;;981.28;;
14734;SDS011;7458;49.002;8.472;2023-05-07T12:53:21;1132.70;;;999.90;;
14734;SDS011;7458;49.002;8.472;2023-05-07T12:55:49;1104.25;;;985.20;;
14734;SDS011;7458;49.002;8.472;2023-05-07T12:58:21;1063.03;;;946.00;;
14734;SDS011;7458;49.002;8.472;2023-05-07T13:00:53;1099.68;;;980.67;;
14734;SDS011;7458;49.002;8.472;2023-05-07T13:05:55;1122.82;;;999.90;;
14734;SDS011;7458;49.002;8.472;2023-05-07T13:08:37;1075.95;;;958.22;;
14734;SDS011;7458;49.002;8.472;2023-05-07T13:11:08;1085.33;;;967.17;;
14734;SDS011;7458;49.002;8.472;2023-05-07T13:13:36;1116.68;;;996.67;;
14734;SDS011;7458;49.002;8.472;2023-05-07T13:16:04;1132.80;;;999.90;;
14734;SDS011;7458;49.002;8.472;2023-05-07T13:18:33;1115.00;;;995.35;;
14734;SDS011;7458;49.002;8.472;2023-05-07T13:20:59;1152.70;;;999.90;;
14734;SDS011;7458;49.002;8.472;2023-05-07T13:23:26;1160.82;;;999.90;;
14734;SDS011;7458;49.002;8.472;2023-05-07T13:25:53;1124.43;;;999.70;;
14734;SDS011;7458;49.002;8.472;2023-05-07T13:28:19;1147.30;;;999.90;;
14734;SDS011;7458;49.002;8.472;2023-05-07T13:30:46;1115.72;;;995.58;;
14734;SDS011;7458;49.002;8.472;2023-05-07T13:33:12;1118.93;;;998.67;;
14734;SDS011;7458;49.002;8.472;2023-05-07T13:35:38;1123.30;;;999.90;;
14734;SDS011;7458;49.002;8.472;2023-05-07T13:38:04;1121.20;;;999.85;;
14734;SDS011;7458;49.002;8.472;2023-05-07T13:40:30;1123.30;;;999.90;;
14734;SDS011;7458;49.002;8.472;2023-05-07T13:42:57;1143.22;;;999.90;;
14734;SDS011;7458;49.002;8.472;2023-05-07T13:45:24;1087.97;;;968.92;;
14734;SDS011;7458;49.002;8.472;2023-05-07T13:47:50;1063.45;;;942.33;;
14734;SDS011;7458;49.002;8.472;2023-05-07T13:50:16;1050.85;;;921.80;;
14734;SDS011;7458;49.002;8.472;2023-05-07T13:52:43;1028.13;;;840.30;;
14734;SDS011;7458;49.002;8.472;2023-05-07T13:55:16;1050.60;;;912.97;;
14734;SDS011;7458;49.002;8.472;2023-05-07T13:57:43;1055.28;;;929.60;;
14734;SDS011;7458;49.002;8.472;2023-05-07T14:00:09;1057.13;;;937.00;;
14734;SDS011;7458;49.002;8.472;2023-05-07T14:02:36;1110.72;;;990.95;;
14734;SDS011;7458;49.002;8.472;2023-05-07T14:05:02;1119.20;;;998.15;;
14734;SDS011;7458;49.002;8.472;2023-05-07T14:07:28;1111.47;;;991.40;;
14734;SDS011;7458;49.002;8.472;2023-05-07T14:09:54;1075.25;;;956.90;;
14734;SDS011;7458;49.002;8.472;2023-05-07T14:12:20;1097.68;;;978.08;;
14734;SDS011;7458;49.002;8.472;2023-05-07T14:14:46;1076.50;;;957.60;;